The Woodlands, Texas
Current Conditions -  °F | °C
As of 10:53 PM on Tuesday 25 Nov 2014 (Local Time) from KDWH Reporting Station
Clear Clear  
Wind Chill: 45°   Ceiling: Unl
Heat Index: 47°   Visibility: 10mi
Dew Point: 36°   Wind: 5mph
Humidity: 66%   Direction: 190°S
Pressure: 30.23"   Gusts: NA
Location:  30.16°N, 95.45°W
Report Text: KDWH 260453Z 19004KT 10SM CLR 08/02 A3023 RMK AO2 SLP235 T00830022
Loading
Personal Weather Stations






























Interactive Weather Map New forecast layout! Learn more

10-Day Weather Forecast

Advertisements
Track Severe Weather on mobile